Time;durP1;ratioP1;P1;durP2;ratioP2;P2;SDS_P1;SDS_P2;PMS_P1;PMS_P2;Temp;Humidity;BMP_temperature;BMP_pressure;BME280_temperature;BME280_humidity;BME280_pressure;Samples;Min_cycle;Max_cycle;Signal;HPM_P1;HPM_P2
2023/01/10 00:02:17;;;;;;;12.85;5.90;;;;;;;9.05;66.62;99802.66;5010282;28;20065;-60
2023/01/10 00:04:45;;;;;;;10.88;6.45;;;;;;;9.07;67.38;99803.16;5009815;28;20072;-62
2023/01/10 00:07:12;;;;;;;14.02;6.72;;;;;;;9.06;66.47;99812.66;5006768;28;20058;-61
2023/01/10 00:09:39;;;;;;;12.20;6.72;;;;;;;8.99;66.38;99815.06;5010356;28;20046;-61
2023/01/10 00:14:52;;;;;;;14.52;7.28;;;;;;;9.01;66.95;99830.28;5014388;28;20065;-61
2023/01/10 00:17:20;;;;;;;11.70;7.00;;;;;;;9.06;66.97;99832.09;5009013;28;20478;-61
2023/01/10 00:19:47;;;;;;;11.68;7.82;;;;;;;9.01;66.08;99843.34;5008980;28;20050;-61
2023/01/10 00:22:23;;;;;;;14.30;7.50;;;;;;;9.01;66.19;99851.66;5009411;28;20085;-62
2023/01/10 00:24:51;;;;;;;13.65;7.88;;;;;;;9.01;66.72;99840.56;5009387;28;20058;-61
2023/01/10 00:27:22;;;;;;;14.88;7.68;;;;;;;9.04;67.14;99854.63;5008153;28;20065;-61
2023/01/10 00:29:51;;;;;;;16.08;7.65;;;;;;;9.01;67.80;99857.22;5008657;28;20080;-61
2023/01/10 00:32:18;;;;;;;14.18;7.15;;;;;;;8.99;67.85;99877.00;5010123;28;20053;-61
2023/01/10 00:34:46;;;;;;;12.98;6.88;;;;;;;9.05;67.74;99874.91;5008199;28;20049;-61
2023/01/10 00:37:13;;;;;;;15.80;8.02;;;;;;;9.02;66.65;99875.56;5009369;28;20053;-61
2023/01/10 00:39:41;;;;;;;13.80;7.50;;;;;;;9.02;67.64;99887.47;5007467;28;20404;-61
2023/01/10 00:44:56;;;;;;;14.25;7.65;;;;;;;8.96;66.33;99899.84;5015249;28;20052;-62
2023/01/10 00:47:23;;;;;;;11.10;7.03;;;;;;;9.01;66.60;99896.13;5008939;28;20545;-62
2023/01/10 00:49:50;;;;;;;10.65;7.47;;;;;;;8.93;66.89;99909.66;5007241;28;20507;-62
2023/01/10 00:52:17;;;;;;;14.50;7.95;;;;;;;8.99;66.62;99906.72;5008590;28;20054;-62
2023/01/10 00:54:44;;;;;;;12.57;7.45;;;;;;;8.92;66.21;99910.81;5004233;28;20487;-62
2023/01/10 00:57:12;;;;;;;11.55;6.63;;;;;;;8.95;67.52;99914.91;5002203;28;20058;-61
2023/01/10 00:59:39;;;;;;;12.95;7.05;;;;;;;8.97;66.09;99922.91;5008507;28;20061;-61
2023/01/10 01:02:08;;;;;;;10.68;5.70;;;;;;;8.93;66.61;99925.50;5009093;28;20057;-62
2023/01/10 01:04:38;;;;;;;12.38;6.32;;;;;;;8.98;66.75;99930.91;5009826;28;20214;-61
2023/01/10 01:07:05;;;;;;;10.60;6.45;;;;;;;8.96;67.44;99935.16;4996182;28;20161;-62
2023/01/10 01:09:32;;;;;;;10.75;6.45;;;;;;;8.87;67.51;99940.66;4999401;28;20534;-62
2023/01/10 01:11:59;;;;;;;13.02;6.55;;;;;;;8.83;65.96;99939.63;5009047;28;20165;-62
2023/01/10 01:14:27;;;;;;;12.85;6.30;;;;;;;8.83;67.39;99946.00;4995528;28;20046;-62
2023/01/10 01:16:54;;;;;;;12.88;6.10;;;;;;;8.87;66.03;99958.13;5009729;28;20458;-62
2023/01/10 01:19:22;;;;;;;13.43;5.95;;;;;;;8.79;66.54;99955.28;5008349;28;20491;-62
2023/01/10 01:21:52;;;;;;;11.10;5.35;;;;;;;8.83;67.24;99962.66;5007591;28;20058;-62
2023/01/10 01:24:21;;;;;;;11.38;5.60;;;;;;;8.85;66.54;99967.91;5008373;28;20050;-61
2023/01/10 01:26:51;;;;;;;16.23;6.13;;;;;;;8.76;66.78;99961.47;5009742;28;20466;-62
2023/01/10 01:29:18;;;;;;;10.93;5.53;;;;;;;8.78;67.77;99973.06;5008284;28;20050;-61
2023/01/10 01:31:46;;;;;;;9.20;4.85;;;;;;;8.86;66.26;99983.44;5009602;28;20061;-62
2023/01/10 01:34:13;;;;;;;11.85;5.63;;;;;;;8.82;66.59;99994.38;5009301;28;20037;-62
2023/01/10 01:36:46;;;;;;;12.32;5.85;;;;;;;8.89;66.01;99997.50;5008507;28;20059;-62
2023/01/10 01:39:14;;;;;;;12.32;5.63;;;;;;;8.85;66.11;100007.59;5008542;28;20054;-62
2023/01/10 01:41:59;;;;;;;16.30;5.90;;;;;;;8.82;66.02;100004.63;5008724;28;20058;-62
2023/01/10 01:44:31;;;;;;;13.38;5.25;;;;;;;8.71;66.83;100013.22;5011644;28;20064;-61
2023/01/10 01:47:04;;;;;;;9.63;5.35;;;;;;;8.71;66.99;100018.78;5011259;28;20062;-61
2023/01/10 01:49:32;;;;;;;9.68;4.90;;;;;;;8.74;66.71;100022.88;4997450;28;20042;-62
2023/01/10 01:52:05;;;;;;;12.20;5.30;;;;;;;8.74;66.56;100025.66;5010460;28;20426;-61
2023/01/10 01:54:34;;;;;;;11.43;4.85;;;;;;;8.75;65.90;100032.84;5009435;28;20046;-61
2023/01/10 01:57:07;;;;;;;11.50;4.57;;;;;;;8.74;65.96;100029.25;5009237;28;20418;-61
2023/01/10 01:59:37;;;;;;;12.18;4.90;;;;;;;8.68;66.11;100026.91;5007464;28;20296;-61
2023/01/10 02:02:10;;;;;;;10.18;4.95;;;;;;;8.57;65.66;100031.88;5011531;28;20054;-62
2023/01/10 02:04:41;;;;;;;12.40;4.45;;;;;;;8.59;66.23;100028.75;5012552;28;20515;-62
2023/01/10 02:07:11;;;;;;;9.30;4.65;;;;;;;8.53;67.10;100037.22;4992907;28;20554;-62
2023/01/10 02:09:43;;;;;;;11.65;4.68;;;;;;;8.52;66.61;100032.81;4993124;28;20054;-61
2023/01/10 02:12:12;;;;;;;12.52;4.55;;;;;;;8.52;66.58;100041.16;5002038;28;20046;-62
2023/01/10 02:14:40;;;;;;;9.55;4.47;;;;;;;8.58;67.44;100039.06;5010523;28;20613;-62
2023/01/10 02:17:10;;;;;;;12.30;4.95;;;;;;;8.55;66.25;100050.78;5010992;28;20400;-62
2023/01/10 02:19:50;;;;;;;10.27;4.45;;;;;;;8.58;66.63;100052.13;5011102;28;20058;-61
2023/01/10 02:23:01;;;;;;;11.95;5.13;;;;;;;8.59;67.07;100050.97;5010958;28;20148;-62
2023/01/10 02:26:08;;;;;;;14.68;4.65;;;;;;;8.59;67.15;100056.53;4975377;28;20057;-61
2023/01/10 02:29:04;;;;;;;11.15;4.00;;;;;;;8.69;66.43;100067.41;5009850;28;20542;-62
2023/01/10 02:31:43;;;;;;;9.75;4.45;;;;;;;8.66;66.00;100066.09;4986401;28;20071;-62
2023/01/10 02:34:20;;;;;;;13.02;4.80;;;;;;;8.59;65.52;100068.47;5012017;28;20054;-61
2023/01/10 02:36:54;;;;;;;12.65;4.47;;;;;;;8.62;65.95;100070.63;5012108;28;20057;-61
2023/01/10 02:39:29;;;;;;;11.73;4.10;;;;;;;8.56;66.11;100059.94;5010839;28;20050;-61
2023/01/10 02:42:02;;;;;;;11.65;4.20;;;;;;;8.64;66.72;100065.56;5002355;28;20058;-61
2023/01/10 02:44:35;;;;;;;8.73;4.05;;;;;;;8.62;66.80;100072.56;5007079;28;20450;-61
2023/01/10 02:47:06;;;;;;;14.13;4.75;;;;;;;8.62;66.01;100061.47;5010021;28;20053;-62
2023/01/10 02:49:44;;;;;;;11.65;4.18;;;;;;;8.52;65.26;100063.34;5009600;28;20057;-62
2023/01/10 02:52:14;;;;;;;10.10;4.32;;;;;;;8.56;65.09;100063.53;4990332;28;20538;-61
2023/01/10 02:54:42;;;;;;;9.65;3.80;;;;;;;8.42;65.84;100062.72;5006894;28;20046;-61
2023/01/10 02:57:31;;;;;;;9.55;3.75;;;;;;;8.32;66.66;100072.06;4994985;28;20054;-62
2023/01/10 03:00:31;;;;;;;7.57;3.72;;;;;;;8.28;65.64;100077.41;5010069;28;20053;-61
2023/01/10 03:03:14;;;;;;;12.57;4.50;;;;;;;8.24;65.99;100079.16;5010807;28;20058;-61
2023/01/10 03:05:55;;;;;;;8.98;3.70;;;;;;;8.25;66.80;100086.38;4991985;28;20507;-61
2023/01/10 03:08:33;;;;;;;12.18;4.28;;;;;;;8.35;66.88;100093.63;5001859;28;20064;-62
2023/01/10 03:11:04;;;;;;;11.80;3.78;;;;;;;8.40;66.61;100090.78;5006593;28;20053;-61
2023/01/10 03:13:37;;;;;;;7.63;3.22;;;;;;;8.45;67.62;100093.47;5009985;28;20050;-61
2023/01/10 03:16:08;;;;;;;8.68;3.55;;;;;;;8.55;66.72;100100.75;4991772;28;20050;-61
2023/01/10 03:18:45;;;;;;;9.52;3.67;;;;;;;8.46;66.65;100105.38;5001238;28;20049;-62
2023/01/10 03:21:14;;;;;;;10.57;3.83;;;;;;;8.36;68.09;100105.56;5010014;28;20606;-61
2023/01/10 03:23:42;;;;;;;10.45;3.42;;;;;;;8.27;66.97;100105.44;5009323;28;20438;-61
2023/01/10 03:26:11;;;;;;;9.82;3.05;;;;;;;8.22;67.23;100108.34;5006872;28;20640;-62
2023/01/10 03:28:45;;;;;;;10.88;2.95;;;;;;;8.11;67.59;100113.28;5010822;28;20064;-61
2023/01/10 03:31:16;;;;;;;9.38;3.38;;;;;;;8.07;68.40;100113.06;5008965;28;20426;-62
2023/01/10 03:33:44;;;;;;;11.88;3.20;;;;;;;8.05;68.18;100125.59;5010403;28;20052;-62
2023/01/10 03:36:25;;;;;;;8.73;3.35;;;;;;;7.85;67.97;100133.16;5009499;28;20049;-62
2023/01/10 03:38:55;;;;;;;10.82;3.63;;;;;;;7.82;68.52;100136.53;5010713;28;20050;-62
2023/01/10 03:41:36;;;;;;;10.43;2.92;;;;;;;7.83;68.81;100148.44;4992674;28;20057;-62
2023/01/10 03:47:01;;;;;;;10.70;3.42;;;;;;;7.82;67.51;100161.47;5010758;28;20069;-62
2023/01/10 03:49:31;;;;;;;10.68;3.40;;;;;;;7.93;67.46;100170.44;5008486;28;20491;-62
2023/01/10 03:52:04;;;;;;;9.20;3.08;;;;;;;8.00;67.37;100173.66;5009419;28;20053;-62
2023/01/10 03:54:32;;;;;;;8.35;3.17;;;;;;;8.00;66.63;100173.66;5008986;28;20052;-62
2023/01/10 03:56:59;;;;;;;6.78;2.92;;;;;;;8.01;67.58;100180.03;5009453;28;20507;-62
2023/01/10 03:59:28;;;;;;;6.53;2.95;;;;;;;8.05;67.68;100190.19;5007318;28;20522;-62
2023/01/10 04:01:55;;;;;;;10.73;3.28;;;;;;;7.99;66.43;100185.88;5009075;28;20054;-62
2023/01/10 04:04:22;;;;;;;10.82;3.85;;;;;;;8.02;66.67;100181.66;5009078;28;20061;-61
2023/01/10 04:06:50;;;;;;;13.10;4.35;;;;;;;8.11;67.52;100191.75;5010293;28;20073;-62
2023/01/10 04:09:18;;;;;;;9.68;3.63;;;;;;;8.12;67.74;100193.38;5007993;28;20065;-62
2023/01/10 04:11:46;;;;;;;14.38;4.20;;;;;;;8.09;67.04;100201.53;5006923;28;20049;-62
2023/01/10 04:14:13;;;;;;;15.35;4.45;;;;;;;8.12;65.95;100207.25;4996848;28;20054;-63
2023/01/10 04:16:40;;;;;;;9.60;3.60;;;;;;;8.08;66.58;100208.19;5007578;28;20054;-62
2023/01/10 04:19:08;;;;;;;10.23;4.40;;;;;;;7.99;67.82;100216.38;5009877;28;20050;-62
2023/01/10 04:21:35;;;;;;;11.63;5.38;;;;;;;8.04;66.24;100219.09;4999815;28;20388;-62
2023/01/10 04:24:02;;;;;;;13.15;5.20;;;;;;;8.01;66.45;100218.84;5003395;28;20490;-62
2023/01/10 04:26:31;;;;;;;10.93;4.57;;;;;;;8.03;67.50;100227.69;5005832;28;20054;-62
2023/01/10 04:28:58;;;;;;;12.65;4.68;;;;;;;8.03;67.39;100228.50;5008730;28;20052;-61
2023/01/10 04:31:28;;;;;;;8.63;4.68;;;;;;;8.04;67.38;100229.34;5009627;28;20054;-62
2023/01/10 04:33:57;;;;;;;9.95;4.05;;;;;;;8.02;67.28;100237.13;5007916;28;20057;-62
2023/01/10 04:36:25;;;;;;;10.70;3.97;;;;;;;8.05;67.09;100236.53;5009001;28;20117;-62
2023/01/10 04:38:55;;;;;;;9.30;3.83;;;;;;;8.02;66.15;100239.91;5009326;28;20422;-62
2023/01/10 04:41:22;;;;;;;9.18;4.25;;;;;;;8.08;65.45;100242.31;4994015;28;20507;-62
2023/01/10 04:43:53;;;;;;;11.73;4.45;;;;;;;7.97;66.73;100232.50;5008358;28;20060;-62
2023/01/10 04:46:21;;;;;;;12.82;4.22;;;;;;;8.02;66.82;100229.66;5008246;28;20321;-62
2023/01/10 04:48:48;;;;;;;14.85;4.57;;;;;;;7.99;67.12;100235.78;5007505;28;20050;-60
2023/01/10 04:51:18;;;;;;;13.93;4.70;;;;;;;7.95;66.58;100240.28;5007545;28;20054;-62
2023/01/10 04:53:45;;;;;;;;;;;;;;;7.98;65.72;100231.38;5009594;28;20057;-62
2023/01/10 04:56:17;;;;;;;10.90;3.78;;;;;;;7.96;65.39;100236.41;5009000;28;19921;-61
2023/01/10 04:58:48;;;;;;;7.13;3.75;;;;;;;7.93;65.82;100239.78;5007496;28;20061;-61
2023/01/10 05:01:22;;;;;;;10.90;4.35;;;;;;;7.95;65.84;100245.03;4992546;28;20054;-61
2023/01/10 05:03:50;;;;;;;12.82;3.97;;;;;;;7.91;65.65;100247.56;5009581;28;20065;-61
2023/01/10 05:06:19;;;;;;;8.75;3.90;;;;;;;7.84;66.33;100238.81;5008904;28;20045;-62
2023/01/10 05:08:46;;;;;;;12.75;5.07;;;;;;;7.79;65.88;100248.06;5008388;28;20057;-62
2023/01/10 05:11:14;;;;;;;8.75;3.13;;;;;;;7.87;67.05;100246.53;5008662;28;20061;-62
2023/01/10 05:13:41;;;;;;;10.98;3.97;;;;;;;7.89;66.04;100250.63;5006369;28;20157;-61
2023/01/10 05:16:10;;;;;;;11.38;4.30;;;;;;;7.88;67.24;100248.19;5012886;28;20053;-62
2023/01/10 05:18:39;;;;;;;8.48;3.80;;;;;;;7.92;65.80;100255.59;5011527;28;20054;-61
2023/01/10 05:21:08;;;;;;;11.90;3.60;;;;;;;8.06;65.29;100254.81;5011357;28;20442;-61
2023/01/10 05:23:36;;;;;;;14.35;3.88;;;;;;;7.96;66.56;100255.81;5012357;28;20064;-62
2023/01/10 05:26:06;;;;;;;12.38;4.20;;;;;;;7.94;65.35;100260.84;5012141;28;20048;-62
2023/01/10 05:28:34;;;;;;;10.45;3.90;;;;;;;8.01;67.05;100264.06;5002424;28;20053;-61
2023/01/10 05:31:01;;;;;;;9.20;3.65;;;;;;;8.07;65.76;100265.63;5012579;28;20061;-62
2023/01/10 05:33:29;;;;;;;9.95;3.78;;;;;;;8.09;65.38;100270.88;5013030;28;20053;-62
2023/01/10 05:35:59;;;;;;;8.25;3.47;;;;;;;8.05;66.05;100281.72;5010185;28;20050;-61
2023/01/10 05:38:26;;;;;;;10.57;4.88;;;;;;;8.06;65.55;100280.63;5008896;28;20049;-61
2023/01/10 05:40:56;;;;;;;11.95;4.15;;;;;;;8.12;65.58;100284.94;5012602;28;20045;-62
2023/01/10 05:43:23;;;;;;;9.10;4.07;;;;;;;8.14;66.40;100288.22;5012761;28;20534;-61
2023/01/10 05:45:50;;;;;;;10.48;4.32;;;;;;;8.13;65.28;100289.38;5011433;28;20153;-61
2023/01/10 05:48:18;;;;;;;9.15;4.00;;;;;;;8.16;64.27;100287.13;5012420;28;20061;-61
2023/01/10 05:50:45;;;;;;;11.68;4.28;;;;;;;8.14;64.62;100288.22;5011093;28;20054;-62
2023/01/10 05:53:14;;;;;;;12.13;5.18;;;;;;;8.14;65.80;100290.19;5009462;28;20061;-61
2023/01/10 05:55:41;;;;;;;12.10;4.53;;;;;;;7.97;65.66;100301.84;5012348;28;20553;-61
2023/01/10 05:58:09;;;;;;;9.80;4.18;;;;;;;7.81;66.44;100297.63;5012702;28;20522;-61
2023/01/10 06:00:38;;;;;;;12.70;5.22;;;;;;;7.98;66.09;100303.50;5010124;28;20064;-61
2023/01/10 06:03:05;;;;;;;15.80;5.13;;;;;;;7.94;65.44;100313.53;5008315;28;20061;-61
2023/01/10 06:05:33;;;;;;;12.38;5.13;;;;;;;8.02;65.49;100320.34;5011594;28;20056;-61
2023/01/10 06:08:01;;;;;;;10.50;3.85;;;;;;;8.08;65.42;100313.59;5007538;28;20408;-61
2023/01/10 06:10:30;;;;;;;10.80;3.95;;;;;;;8.11;65.13;100324.91;5000632;28;20045;-61
2023/01/10 06:12:57;;;;;;;12.98;4.68;;;;;;;8.14;65.39;100324.28;5000668;28;20058;-62
2023/01/10 06:15:25;;;;;;;10.68;3.95;;;;;;;8.19;64.49;100325.34;5006421;28;20058;-61
2023/01/10 06:17:52;;;;;;;10.55;4.32;;;;;;;8.24;64.50;100330.81;5000171;28;20054;-62
2023/01/10 06:20:19;;;;;;;12.85;4.30;;;;;;;8.12;64.32;100337.66;5001904;28;20526;-61
2023/01/10 06:22:47;;;;;;;16.35;4.50;;;;;;;8.19;64.40;100331.75;5006579;28;20058;-61
2023/01/10 06:25:14;;;;;;;18.80;5.47;;;;;;;8.25;64.76;100338.00;5011247;28;20098;-62
2023/01/10 06:27:44;;;;;;;13.23;4.45;;;;;;;8.24;65.31;100333.59;5005694;28;20050;-62
2023/01/10 06:30:13;;;;;;;11.38;4.50;;;;;;;8.17;64.99;100338.69;5009092;28;20060;-62
2023/01/10 06:32:42;;;;;;;15.52;5.13;;;;;;;8.30;64.10;100326.84;5000140;28;20054;-62
2023/01/10 06:35:10;;;;;;;9.77;4.82;;;;;;;8.37;64.39;100341.16;5009079;28;20058;-61
2023/01/10 06:37:37;;;;;;;13.63;5.75;;;;;;;8.30;64.48;100335.16;5010714;28;20048;-61
2023/01/10 06:40:06;;;;;;;11.70;6.15;;;;;;;8.33;64.07;100351.19;5016996;28;20053;-62
2023/01/10 06:42:34;;;;;;;16.55;6.25;;;;;;;8.40;64.41;100371.09;5018996;28;20526;-62
2023/01/10 06:45:03;;;;;;;14.15;5.60;;;;;;;8.43;65.42;100387.16;5028384;28;20060;-61
2023/01/10 06:47:30;;;;;;;18.25;5.68;;;;;;;8.43;63.65;100386.34;5028751;28;20049;-62
2023/01/10 06:49:58;;;;;;;13.07;5.85;;;;;;;8.32;65.25;100392.00;5031539;28;20057;-61
2023/01/10 06:52:25;;;;;;;15.50;6.10;;;;;;;8.40;63.66;100389.66;5029134;28;20165;-61
2023/01/10 06:54:52;;;;;;;17.63;6.00;;;;;;;8.24;64.43;100398.25;5022030;28;20054;-61
2023/01/10 06:57:20;;;;;;;18.90;8.27;;;;;;;8.31;64.52;100397.84;5011670;28;20057;-61
2023/01/10 06:59:47;;;;;;;20.50;8.75;;;;;;;8.28;65.54;100390.16;5011763;28;20054;-61
2023/01/10 07:02:16;;;;;;;24.67;9.70;;;;;;;8.37;64.84;100404.16;5020464;28;20061;-62
2023/01/10 07:04:44;;;;;;;17.38;7.00;;;;;;;8.40;63.60;100398.00;5031123;28;20537;-61
2023/01/10 07:07:11;;;;;;;20.48;8.65;;;;;;;8.42;64.67;100402.16;5031338;28;20072;-61
2023/01/10 07:09:39;;;;;;;21.25;9.00;;;;;;;8.49;64.64;100415.66;5031026;28;20054;-62
2023/01/10 07:12:06;;;;;;;20.02;7.45;;;;;;;8.46;64.57;100408.78;5017869;28;20494;-61
2023/01/10 07:14:33;;;;;;;16.40;7.40;;;;;;;8.44;64.08;100430.44;5011106;28;20060;-62
2023/01/10 07:17:01;;;;;;;23.35;9.07;;;;;;;8.34;63.92;100433.34;5025391;28;20056;-61
2023/01/10 07:19:29;;;;;;;23.48;7.93;;;;;;;8.40;63.58;100431.28;5031452;28;20530;-62
2023/01/10 07:21:57;;;;;;;19.58;8.05;;;;;;;8.37;63.63;100427.19;5027666;28;20427;-61
2023/01/10 07:24:24;;;;;;;23.90;9.13;;;;;;;8.40;65.19;100420.19;5011046;28;20400;-61
2023/01/10 07:26:51;;;;;;;14.75;6.95;;;;;;;8.33;63.67;100426.94;5024869;28;20052;-61
2023/01/10 07:29:18;;;;;;;20.90;10.25;;;;;;;8.38;64.55;100434.41;5028974;28;20053;-61
2023/01/10 07:31:46;;;;;;;16.67;9.00;;;;;;;8.35;64.70;100437.75;5028422;28;20049;-61
2023/01/10 07:34:13;;;;;;;14.52;7.68;;;;;;;8.28;65.51;100440.91;5031032;28;20050;-62
2023/01/10 07:36:41;;;;;;;20.13;7.55;;;;;;;8.36;63.46;100439.41;5030335;28;20422;-62
2023/01/10 07:39:09;;;;;;;20.52;8.27;;;;;;;8.34;65.27;100450.81;5024551;28;20185;-61
2023/01/10 07:41:36;;;;;;;24.65;9.95;;;;;;;8.34;63.98;100441.66;5022276;28;20054;-62
2023/01/10 07:44:05;;;;;;;19.02;8.75;;;;;;;8.40;65.06;100447.94;5030286;28;20495;-61
2023/01/10 07:46:33;;;;;;;24.38;9.07;;;;;;;8.40;63.73;100450.72;5006838;28;20072;-61
2023/01/10 07:49:00;;;;;;;24.90;8.57;;;;;;;8.48;64.93;100450.09;5029796;28;20079;-61
2023/01/10 07:51:27;;;;;;;20.08;7.38;;;;;;;8.33;63.89;100460.25;5005454;28;20053;-62
2023/01/10 07:53:56;;;;;;;21.38;6.90;;;;;;;8.35;63.71;100457.19;4991329;28;20065;-61
2023/01/10 07:56:23;;;;;;;21.00;6.97;;;;;;;8.38;64.67;100466.84;5023111;28;20061;-62
2023/01/10 07:58:51;;;;;;;24.08;8.20;;;;;;;8.32;65.04;100463.34;5030278;28;20053;-61
2023/01/10 08:01:21;;;;;;;18.55;7.30;;;;;;;8.30;64.71;100474.75;5025155;28;20057;-62
2023/01/10 08:03:48;;;;;;;19.33;7.53;;;;;;;8.23;64.93;100471.53;5030097;28;20060;-62
2023/01/10 08:06:15;;;;;;;16.08;6.93;;;;;;;8.32;64.48;100471.69;5030226;28;20057;-61
2023/01/10 08:08:43;;;;;;;23.98;7.28;;;;;;;8.31;64.53;100483.88;5028081;28;20049;-62
2023/01/10 08:11:11;;;;;;;17.75;7.05;;;;;;;8.24;63.63;100483.44;5028565;28;20053;-62
2023/01/10 08:13:39;;;;;;;20.50;6.85;;;;;;;8.36;64.61;100485.75;5030224;28;20064;-62
2023/01/10 08:16:07;;;;;;;17.17;6.78;;;;;;;8.40;64.96;100484.88;5018475;28;20542;-61
2023/01/10 08:18:35;;;;;;;19.17;6.78;;;;;;;8.38;64.26;100484.34;5029957;28;20429;-61
2023/01/10 08:21:02;;;;;;;15.27;6.30;;;;;;;8.39;64.07;100491.53;5030135;28;20053;-62
2023/01/10 08:23:31;;;;;;;16.75;6.78;;;;;;;8.42;63.54;100499.31;5030065;28;20053;-61
2023/01/10 08:26:01;;;;;;;15.50;6.70;;;;;;;8.43;63.10;100495.41;5029965;28;20057;-62
2023/01/10 08:28:33;;;;;;;20.48;6.97;;;;;;;8.47;64.30;100499.22;5025306;28;20493;-62
2023/01/10 08:31:06;;;;;;;17.38;6.78;;;;;;;8.49;63.86;100496.97;5027582;28;20065;-61
2023/01/10 08:33:33;;;;;;;19.20;6.68;;;;;;;8.54;64.28;100508.00;5029784;28;20054;-62
2023/01/10 08:36:01;;;;;;;17.17;6.55;;;;;;;8.63;63.85;100510.94;5029952;28;20053;-62
2023/01/10 08:38:28;;;;;;;21.42;7.30;;;;;;;8.72;62.93;100502.75;5029268;28;20049;-60
2023/01/10 08:40:56;;;;;;;21.15;6.68;;;;;;;8.68;62.81;100510.84;5012142;28;20057;-61
2023/01/10 08:43:23;;;;;;;20.05;6.40;;;;;;;8.69;62.78;100522.78;5030047;28;20057;-62
2023/01/10 08:45:52;;;;;;;19.65;7.30;;;;;;;8.55;63.51;100514.41;5025965;28;20494;-61
2023/01/10 08:48:22;;;;;;;17.77;6.93;;;;;;;8.52;63.09;100518.59;5030157;28;20053;-62
2023/01/10 08:50:50;;;;;;;;;;;;;;;8.45;63.14;100509.00;5033088;28;20628;-62
2023/01/10 08:53:17;;;;;;;14.88;6.45;;;;;;;8.43;62.59;100520.38;5018352;28;20377;-62
2023/01/10 08:55:44;;;;;;;19.25;7.07;;;;;;;8.35;63.88;100523.78;5013917;28;20056;-62
2023/01/10 08:58:11;;;;;;;20.02;7.20;;;;;;;8.36;63.76;100533.78;5017256;28;20056;-62
2023/01/10 09:00:39;;;;;;;16.20;6.68;;;;;;;8.40;63.24;100534.84;5030609;28;20045;-63
2023/01/10 09:03:10;;;;;;;19.17;6.57;;;;;;;8.43;63.48;100519.56;5033802;28;20060;-62
2023/01/10 09:05:40;;;;;;;23.00;7.50;;;;;;;8.56;63.61;100535.47;5033482;28;20053;-62
2023/01/10 09:08:10;;;;;;;22.00;7.47;;;;;;;8.51;63.23;100547.47;5033853;28;20156;-62
2023/01/10 09:10:37;;;;;;;22.65;8.23;;;;;;;8.49;63.17;100546.94;5033083;28;20453;-63
2023/01/10 09:13:04;;;;;;;19.70;7.55;;;;;;;8.40;62.73;100540.38;5033569;28;20490;-62
2023/01/10 09:15:34;;;;;;;19.33;7.30;;;;;;;8.52;63.45;100529.72;5031090;28;20433;-62
2023/01/10 09:18:05;;;;;;;21.65;7.18;;;;;;;8.49;62.79;100546.94;5033562;28;20060;-62
2023/01/10 09:20:36;;;;;;;23.60;7.15;;;;;;;8.46;62.40;100539.22;5033012;28;20053;-62
2023/01/10 09:23:07;;;;;;;15.88;6.32;;;;;;;8.51;63.61;100539.16;5033644;28;20490;-62
2023/01/10 09:25:37;;;;;;;20.85;7.53;;;;;;;8.51;63.36;100549.44;5033118;28;20512;-62
2023/01/10 09:28:06;;;;;;;15.30;7.32;;;;;;;8.59;63.09;100539.59;5033432;28;20046;-62
2023/01/10 09:30:36;;;;;;;21.70;7.32;;;;;;;8.53;62.83;100536.09;5030633;28;20518;-62
2023/01/10 09:33:07;;;;;;;20.52;6.40;;;;;;;8.63;63.67;100535.09;5033108;28;20506;-62
2023/01/10 09:35:38;;;;;;;24.23;7.43;;;;;;;8.54;63.29;100546.03;5033003;28;20053;-62
2023/01/10 09:38:07;;;;;;;22.63;6.93;;;;;;;8.54;63.12;100549.63;5033239;28;20053;-62
2023/01/10 09:40:50;;;;;;;22.33;7.50;;;;;;;8.71;63.78;100551.06;5014972;28;20058;-62
2023/01/10 09:43:26;;;;;;;22.30;7.03;;;;;;;8.81;62.14;100550.94;5014324;28;20065;-62
2023/01/10 09:46:04;;;;;;;15.18;6.30;;;;;;;8.73;61.90;100557.16;5032851;28;20514;-61
2023/01/10 09:48:39;;;;;;;21.00;7.70;;;;;;;8.88;62.27;100556.09;5033116;28;20053;-62
2023/01/10 09:51:28;;;;;;;15.48;6.88;;;;;;;9.04;61.62;100557.53;5032861;28;20425;-62
2023/01/10 09:53:59;;;;;;;18.90;6.40;;;;;;;9.01;61.70;100569.25;5032128;28;20054;-62
2023/01/10 09:56:29;;;;;;;20.55;6.68;;;;;;;9.02;61.80;100561.75;5013391;28;20054;-61
2023/01/10 09:58:59;;;;;;;23.58;6.93;;;;;;;9.02;60.98;100561.75;5021451;28;20049;-62
2023/01/10 10:01:35;;;;;;;15.82;6.60;;;;;;;8.99;61.78;100557.63;5032439;28;20490;-62
2023/01/10 10:04:11;;;;;;;16.33;5.72;;;;;;;9.12;61.03;100573.50;5032790;28;20463;-62
2023/01/10 10:06:40;;;;;;;18.83;6.03;;;;;;;9.27;61.35;100571.63;5032216;28;20410;-62
2023/01/10 10:09:10;;;;;;;16.60;5.82;;;;;;;9.20;59.76;100571.16;5032503;28;20072;-62
2023/01/10 10:12:02;;;;;;;16.52;5.68;;;;;;;9.30;59.45;100569.06;5032291;28;20161;-62
2023/01/10 10:14:47;;;;;;;20.52;6.60;;;;;;;9.38;60.77;100569.50;4993432;28;20557;-62
2023/01/10 10:17:42;;;;;;;17.77;5.63;;;;;;;9.38;60.43;100564.75;4993329;28;20058;-62
2023/01/10 10:20:23;;;;;;;14.60;5.15;;;;;;;9.42;59.88;100576.09;4990960;28;20054;-62
2023/01/10 10:23:03;;;;;;;20.05;6.32;;;;;;;9.74;59.83;100569.66;4992926;28;20065;-62
2023/01/10 10:25:42;;;;;;;;;;;;;;;9.83;58.49;100556.72;4992531;28;20054;-61
2023/01/10 10:28:53;;;;;;;15.95;5.63;;;;;;;9.93;58.27;100547.34;5020504;28;20420;-62
2023/01/10 10:31:30;;;;;;;20.80;5.65;;;;;;;10.60;56.59;100548.78;4934872;29;20157;-62
2023/01/10 10:34:06;;;;;;;16.67;5.50;;;;;;;13.75;49.29;100522.41;4935101;29;20056;-62
2023/01/10 10:36:43;;;;;;;16.63;4.63;;;;;;;14.51;46.53;100531.06;4989705;28;20418;-61
2023/01/10 10:39:17;;;;;;;14.90;4.88;;;;;;;13.39;48.22;100537.63;5025434;28;20061;-62
2023/01/10 10:41:49;;;;;;;18.10;4.97;;;;;;;12.71;49.70;100528.09;5020321;28;20054;-62
2023/01/10 10:44:34;;;;;;;14.45;4.95;;;;;;;12.15;51.37;100523.03;5029826;28;20437;-62
2023/01/10 10:47:15;;;;;;;19.23;5.18;;;;;;;11.98;50.42;100536.97;5031876;28;20057;-62
2023/01/10 10:49:53;;;;;;;19.85;5.45;;;;;;;11.80;52.18;100530.47;5031615;28;20049;-62
2023/01/10 10:52:24;;;;;;;15.95;4.80;;;;;;;13.15;49.54;100512.16;5031803;28;20061;-61
2023/01/10 10:54:54;;;;;;;13.75;4.50;;;;;;;12.74;49.32;100521.84;5024643;28;20120;-62
2023/01/10 10:57:22;;;;;;;;;;;;;;;12.40;50.28;100534.63;5032256;28;20057;-62
2023/01/10 10:59:51;;;;;;;18.42;4.93;;;;;;;15.59;42.85;100516.31;5027446;28;20337;-62
2023/01/10 11:02:24;;;;;;;;;;;;;;;15.87;43.38;100499.63;5012209;28;20422;-62
2023/01/10 11:04:52;;;;;;;13.63;4.28;;;;;;;14.80;44.27;100519.03;5010694;28;19928;-62
2023/01/10 11:07:21;;;;;;;14.10;4.38;;;;;;;13.39;47.64;100511.63;5011763;28;20077;-62
2023/01/10 11:09:54;;;;;;;13.48;4.43;;;;;;;13.46;47.07;100509.16;5017328;28;20410;-62
2023/01/10 11:12:28;;;;;;;15.98;4.03;;;;;;;13.03;47.55;100520.38;5025675;28;20403;-62
2023/01/10 11:14:55;;;;;;;13.80;5.00;;;;;;;12.53;49.51;100511.31;5030934;28;20049;-63
2023/01/10 11:17:25;;;;;;;16.58;4.30;;;;;;;12.38;49.90;100509.78;5031215;28;20513;-62
2023/01/10 11:19:56;;;;;;;;;;;;;;;12.38;49.86;100506.19;5031522;28;20049;-63
2023/01/10 11:22:28;;;;;;;15.23;3.85;;;;;;;12.14;50.68;100510.25;5031043;28;19921;-62
2023/01/10 11:24:58;;;;;;;17.80;4.18;;;;;;;12.34;49.44;100508.81;5024387;28;20069;-63
2023/01/10 11:27:29;;;;;;;14.50;3.80;;;;;;;11.95;51.03;100499.34;5031037;28;20049;-62
2023/01/10 11:30:00;;;;;;;18.30;4.80;;;;;;;11.83;51.33;100495.50;5030885;28;20080;-61
2023/01/10 11:32:34;;;;;;;13.55;3.67;;;;;;;12.05;50.43;100491.81;5031108;28;20050;-62
2023/01/10 11:35:06;;;;;;;14.70;3.75;;;;;;;12.25;50.50;100498.78;5030612;28;20053;-61
2023/01/10 11:37:35;;;;;;;12.70;4.97;;;;;;;11.90;50.85;100493.91;5024640;28;20053;-63
2023/01/10 11:40:25;;;;;;;14.80;3.90;;;;;;;11.40;51.73;100493.31;5016008;28;20050;-62
2023/01/10 11:42:57;;;;;;;15.90;4.47;;;;;;;11.45;52.20;100496.78;5006629;28;20057;-62
2023/01/10 11:45:30;;;;;;;14.73;4.38;;;;;;;11.98;50.94;100497.88;5011016;28;20060;-62
2023/01/10 11:48:02;;;;;;;13.45;4.00;;;;;;;12.15;50.18;100492.34;5027321;28;20053;-62
2023/01/10 11:50:33;;;;;;;14.55;4.22;;;;;;;12.13;50.09;100491.84;5029580;28;20060;-62
2023/01/10 11:53:00;;;;;;;10.45;3.53;;;;;;;11.98;49.77;100484.72;5018375;28;20057;-62